Time;durP1;ratioP1;P1;durP2;ratioP2;P2;SDS_P1;SDS_P2;PMS_P1;PMS_P2;Temp;Humidity;BMP_temperature;BMP_pressure;BME280_temperature;BME280_humidity;BME280_pressure;Samples;Min_cycle;Max_cycle;Signal;HPM_P1;HPM_P2
2022/08/17 00:02:14;;;;;;;0.45;0.45;;;;;;;25.25;40.94;100325.53;5149498;28;20037;-81
2022/08/17 00:04:45;;;;;;;0.90;0.52;;;;;;;25.23;40.69;100319.50;5154604;28;20038;-80
2022/08/17 00:07:16;;;;;;;1.13;1.02;;;;;;;25.21;41.32;100321.47;5148311;28;20599;-81
2022/08/17 00:09:46;;;;;;;0.47;0.47;;;;;;;25.19;40.64;100323.44;5146884;28;20566;-81
2022/08/17 00:12:18;;;;;;;0.47;0.47;;;;;;;25.17;40.77;100328.09;5127470;28;20120;-80
2022/08/17 00:14:49;;;;;;;0.85;0.60;;;;;;;25.11;41.12;100325.03;5124381;28;20034;-82
2022/08/17 00:17:20;;;;;;;0.82;0.70;;;;;;;25.09;41.08;100328.84;5168962;28;20120;-81
2022/08/17 00:19:50;;;;;;;0.70;0.70;;;;;;;25.06;41.29;100321.94;5148803;28;20049;-81
2022/08/17 00:22:21;;;;;;;0.68;0.68;;;;;;;25.02;41.59;100328.59;5134150;28;20031;-81
2022/08/17 00:24:52;;;;;;;0.47;0.47;;;;;;;25.02;41.30;100323.22;5119045;28;20088;-81
2022/08/17 00:27:22;;;;;;;0.85;0.85;;;;;;;25.00;41.22;100319.81;5142352;28;20652;-81
2022/08/17 00:29:53;;;;;;;0.73;0.73;;;;;;;24.96;41.34;100315.75;5119112;28;20064;-80
2022/08/17 00:32:24;;;;;;;0.52;0.52;;;;;;;24.93;41.64;100322.25;5161861;28;20026;-81
2022/08/17 00:34:55;;;;;;;0.50;0.50;;;;;;;24.89;41.87;100320.00;5129465;28;20389;-81
2022/08/17 00:37:25;;;;;;;0.57;0.57;;;;;;;24.89;41.41;100320.00;5120690;28;20102;-81
2022/08/17 00:39:56;;;;;;;0.40;0.40;;;;;;;24.86;41.64;100321.16;5136328;28;20042;-81
2022/08/17 00:42:26;;;;;;;0.60;0.60;;;;;;;24.83;42.01;100313.38;5161794;28;20045;-81
2022/08/17 00:44:57;;;;;;;0.70;0.63;;;;;;;24.81;41.73;100316.22;5150522;28;20061;-80
2022/08/17 00:47:28;;;;;;;1.25;0.75;;;;;;;24.79;41.99;100320.88;5117060;28;20601;-81
2022/08/17 00:49:58;;;;;;;1.42;1.30;;;;;;;24.77;42.01;100312.13;5148603;28;20042;-81
2022/08/17 00:52:34;;;;;;;1.05;0.98;;;;;;;24.75;42.11;100308.72;5149994;28;20030;-81
2022/08/17 00:55:07;;;;;;;1.95;0.80;;;;;;;24.73;42.03;100308.03;5133249;28;20070;-80
2022/08/17 00:57:43;;;;;;;1.10;1.10;;;;;;;24.73;41.76;100305.38;5132913;28;20355;-81
2022/08/17 01:00:25;;;;;;;2.65;0.88;;;;;;;24.70;41.83;100304.81;5133284;28;20065;-81
2022/08/17 01:03:08;;;;;;;1.00;0.90;;;;;;;24.67;42.09;100300.56;5132439;28;20031;-81
2022/08/17 01:05:40;;;;;;;0.52;0.52;;;;;;;24.65;42.57;100297.16;5146904;28;20034;-81
2022/08/17 01:08:14;;;;;;;0.57;0.50;;;;;;;24.61;42.77;100295.75;5128997;28;20101;-81
2022/08/17 01:10:47;;;;;;;5.30;0.70;;;;;;;24.62;42.47;100294.75;5144074;28;20701;-81
2022/08/17 01:13:20;;;;;;;0.22;0.22;;;;;;;24.58;42.25;100293.38;5114775;28;20049;-81
2022/08/17 01:15:59;;;;;;;0.47;0.47;;;;;;;24.55;42.68;100285.59;5148101;28;20677;-81
2022/08/17 01:18:31;;;;;;;0.30;0.30;;;;;;;24.52;43.00;100297.47;5127437;28;20039;-81
2022/08/17 01:21:25;;;;;;;0.20;0.20;;;;;;;24.49;43.22;100295.91;5133121;28;20108;-81
2022/08/17 01:23:58;;;;;;;0.60;0.60;;;;;;;24.48;42.75;100301.41;5163022;28;20040;-81
2022/08/17 01:26:34;;;;;;;0.65;0.65;;;;;;;24.43;43.58;100301.81;5133551;28;20037;-79
2022/08/17 01:29:11;;;;;;;0.63;0.63;;;;;;;24.40;42.68;100302.13;5124325;28;20050;-81
2022/08/17 01:31:46;;;;;;;0.88;0.88;;;;;;;24.39;43.17;100300.44;5167376;28;20564;-81
2022/08/17 01:34:18;;;;;;;1.02;0.80;;;;;;;24.36;42.95;100296.19;5152213;28;20038;-80
2022/08/17 01:36:50;;;;;;;2.78;0.90;;;;;;;24.34;43.37;100286.59;5156881;28;20038;-80
2022/08/17 01:39:33;;;;;;;1.50;0.40;;;;;;;24.31;43.52;100290.41;5152600;28;20046;-80
2022/08/17 01:42:22;;;;;;;1.55;0.82;;;;;;;24.30;43.75;100287.88;5153533;28;20079;-80
2022/08/17 01:44:57;;;;;;;0.55;0.55;;;;;;;24.26;43.94;100283.75;5124574;28;20111;-81
2022/08/17 01:47:28;;;;;;;1.40;1.02;;;;;;;24.25;43.10;100293.66;5123196;28;20616;-80
2022/08/17 01:50:08;;;;;;;0.82;0.82;;;;;;;24.22;43.57;100295.78;5130537;28;20046;-80
2022/08/17 01:52:40;;;;;;;0.85;0.85;;;;;;;24.18;43.73;100296.03;5128650;28;20104;-80
2022/08/17 01:55:13;;;;;;;0.70;0.70;;;;;;;24.15;43.50;100290.97;5140486;28;20039;-80
2022/08/17 01:57:46;;;;;;;0.90;0.90;;;;;;;24.14;43.59;100294.66;5144699;28;20031;-80
2022/08/17 02:00:17;;;;;;;0.30;0.30;;;;;;;24.13;43.53;100287.59;5133260;28;20035;-80
2022/08/17 02:02:47;;;;;;;0.93;0.93;;;;;;;24.10;43.67;100295.06;5097990;28;20045;-80
2022/08/17 02:05:18;;;;;;;0.50;0.50;;;;;;;24.08;43.79;100295.22;5125702;28;20121;-80
2022/08/17 02:07:49;;;;;;;0.93;0.93;;;;;;;24.06;43.79;100291.81;5150293;28;20097;-80
2022/08/17 02:10:19;;;;;;;0.30;0.30;;;;;;;24.03;43.75;100286.72;5132678;28;20459;-80
2022/08/17 02:12:50;;;;;;;2.00;1.33;;;;;;;24.02;43.33;100295.75;5166767;28;20034;-80
2022/08/17 02:15:21;;;;;;;0.40;0.40;;;;;;;23.99;43.88;100290.69;5135393;28;20038;-80
2022/08/17 02:17:52;;;;;;;1.48;0.90;;;;;;;23.96;43.91;100283.78;5119743;28;20049;-81
2022/08/17 02:20:22;;;;;;;0.50;0.50;;;;;;;23.94;44.38;100290.25;5149479;28;20053;-80
2022/08/17 02:22:56;;;;;;;0.73;0.73;;;;;;;23.93;44.35;100288.50;5161578;28;20101;-81
2022/08/17 02:25:31;;;;;;;1.65;1.10;;;;;;;23.91;43.92;100283.31;5124326;28;20038;-81
2022/08/17 02:28:03;;;;;;;0.73;0.73;;;;;;;23.90;43.45;100281.59;5164513;28;20022;-81
2022/08/17 02:30:43;;;;;;;0.73;0.73;;;;;;;23.87;43.87;100279.22;5131486;28;20055;-80
2022/08/17 02:33:14;;;;;;;1.83;1.15;;;;;;;23.88;43.87;100288.97;5122183;28;20401;-80
2022/08/17 02:35:47;;;;;;;0.50;0.50;;;;;;;23.86;43.80;100280.19;5121509;28;20134;-80
2022/08/17 02:38:21;;;;;;;0.93;0.93;;;;;;;23.84;43.89;100282.16;5125929;28;20046;-81
2022/08/17 02:40:55;;;;;;;5.38;0.93;;;;;;;23.81;43.78;100272.59;5149633;28;20042;-80
2022/08/17 02:43:27;;;;;;;1.23;1.13;;;;;;;23.80;44.05;100281.59;5126112;28;20034;-81
2022/08/17 02:45:57;;;;;;;9.80;1.52;;;;;;;23.79;44.37;100279.06;5135479;28;20034;-80
2022/08/17 02:48:28;;;;;;;1.05;0.98;;;;;;;23.78;44.13;100282.72;5131849;28;20034;-80
2022/08/17 02:50:59;;;;;;;0.82;0.82;;;;;;;23.77;44.41;100276.50;5136293;28;20877;-80
2022/08/17 02:53:30;;;;;;;0.38;0.38;;;;;;;23.75;44.73;100273.13;5151128;28;20058;-80
2022/08/17 02:56:01;;;;;;;0.73;0.70;;;;;;;23.74;44.36;100283.00;5128608;28;20054;-80
2022/08/17 02:58:31;;;;;;;2.10;1.40;;;;;;;23.72;44.44;100278.75;5140926;28;20027;-80
2022/08/17 03:01:08;;;;;;;0.63;0.63;;;;;;;23.71;44.17;100274.38;5123931;28;20029;-80
2022/08/17 03:03:52;;;;;;;1.60;1.30;;;;;;;23.70;44.35;100270.88;5149847;28;20042;-80
2022/08/17 03:06:37;;;;;;;0.30;0.30;;;;;;;23.69;44.67;100271.84;5135715;28;20113;-80
2022/08/17 03:09:35;;;;;;;1.55;0.73;;;;;;;23.67;44.77;100270.31;5149981;28;20039;-80
2022/08/17 03:12:12;;;;;;;0.88;0.88;;;;;;;23.67;44.38;100270.31;5138661;28;20038;-81
2022/08/17 03:14:43;;;;;;;0.95;0.80;;;;;;;23.65;44.66;100266.91;5117551;28;20089;-80
2022/08/17 03:17:14;;;;;;;1.00;1.00;;;;;;;23.64;44.90;100268.72;5133673;28;20030;-79
2022/08/17 03:19:44;;;;;;;5.18;0.90;;;;;;;23.63;44.47;100277.78;5100604;28;20043;-80
2022/08/17 03:22:15;;;;;;;0.40;0.40;;;;;;;23.63;44.84;100271.56;5094389;28;20031;-80
2022/08/17 03:24:45;;;;;;;3.17;1.38;;;;;;;23.59;44.79;100268.31;5112576;28;20416;-80
2022/08/17 03:27:16;;;;;;;0.65;0.65;;;;;;;23.59;44.99;100265.63;5119841;28;20086;-80
2022/08/17 03:29:47;;;;;;;1.27;0.60;;;;;;;23.57;44.99;100263.09;5131821;28;20452;-81
2022/08/17 03:32:19;;;;;;;0.73;0.73;;;;;;;23.56;45.11;100264.06;5133716;28;20029;-80
2022/08/17 03:34:49;;;;;;;0.70;0.70;;;;;;;23.53;44.59;100256.31;5140056;28;20047;-80
2022/08/17 03:37:20;;;;;;;0.45;0.45;;;;;;;23.54;44.94;100270.56;5126221;28;20086;-80
2022/08/17 03:39:52;;;;;;;1.85;1.23;;;;;;;23.51;45.01;100268.97;5124228;28;20051;-80
2022/08/17 03:42:26;;;;;;;0.63;0.63;;;;;;;23.50;44.78;100263.75;5126568;28;20097;-80
2022/08/17 03:44:57;;;;;;;0.47;0.47;;;;;;;23.48;45.34;100271.09;5108433;28;20134;-79
2022/08/17 03:58:55;;;;;;;0.57;0.57;;;;;;;23.41;44.93;100262.78;5159209;28;19914;-80
2022/08/17 04:01:26;;;;;;;1.52;1.42;;;;;;;23.40;45.13;100280.66;5147921;28;20040;-79
2022/08/17 04:03:56;;;;;;;2.03;1.33;;;;;;;23.37;45.39;100280.94;5144371;28;20691;-79
2022/08/17 04:06:27;;;;;;;0.60;0.60;;;;;;;23.36;45.63;100279.25;5147669;28;20713;-80
2022/08/17 04:09:00;;;;;;;1.10;1.00;;;;;;;23.35;45.42;100285.56;5149759;28;20022;-79
2022/08/17 04:11:33;;;;;;;0.43;0.43;;;;;;;23.35;45.70;100287.38;5156196;28;20053;-80
2022/08/17 04:14:06;;;;;;;2.20;1.38;;;;;;;23.35;44.80;100288.25;5140348;28;20077;-80
2022/08/17 04:16:40;;;;;;;1.08;0.98;;;;;;;23.33;45.36;100292.88;5133048;28;20695;-80
2022/08/17 04:19:11;;;;;;;0.98;0.95;;;;;;;23.33;45.37;100289.38;5132032;28;20113;-80
2022/08/17 04:21:41;;;;;;;0.40;0.40;;;;;;;23.32;45.77;100290.34;5130488;28;20488;-80
2022/08/17 04:24:12;;;;;;;1.77;1.40;;;;;;;23.32;45.36;100299.22;5146743;28;20105;-79
2022/08/17 04:26:42;;;;;;;0.70;0.70;;;;;;;23.31;45.27;100310.06;5149615;28;20033;-80
2022/08/17 04:29:13;;;;;;;7.25;1.20;;;;;;;23.30;45.49;100309.22;5167868;28;20075;-80
2022/08/17 04:31:45;;;;;;;1.70;0.90;;;;;;;23.32;45.36;100303.72;5149772;28;20065;-80
2022/08/17 04:34:15;;;;;;;2.00;1.42;;;;;;;23.31;45.58;100310.06;5163191;28;20043;-80
2022/08/17 04:36:46;;;;;;;0.73;0.30;;;;;;;23.31;45.24;100312.75;5126960;28;20092;-80
2022/08/17 04:39:19;;;;;;;1.48;0.98;;;;;;;23.29;45.49;100317.38;5137472;28;20045;-80
2022/08/17 04:42:05;;;;;;;2.42;1.25;;;;;;;23.28;45.27;100308.50;5127603;28;20034;-80
2022/08/17 04:44:38;;;;;;;0.73;0.73;;;;;;;23.26;45.52;100305.94;5131047;28;20599;-80
2022/08/17 04:47:09;;;;;;;0.50;0.50;;;;;;;23.26;45.57;100302.44;5143015;28;20026;-80
2022/08/17 04:49:40;;;;;;;0.60;0.60;;;;;;;23.27;45.44;100298.78;5139532;28;20468;-80
2022/08/17 04:52:10;;;;;;;0.50;0.50;;;;;;;23.27;45.38;100302.28;5128859;28;20035;-80
2022/08/17 04:54:40;;;;;;;0.40;0.40;;;;;;;23.26;45.46;100305.94;5146290;28;20034;-80
2022/08/17 04:57:11;;;;;;;0.52;0.52;;;;;;;23.28;45.36;100305.81;5129697;28;20110;-80
2022/08/17 04:59:44;;;;;;;0.52;0.52;;;;;;;23.28;45.70;100303.16;5130549;28;20054;-80
2022/08/17 05:02:15;;;;;;;0.40;0.35;;;;;;;23.26;45.62;100300.59;5127579;28;20447;-80
2022/08/17 05:04:45;;;;;;;0.93;0.80;;;;;;;23.28;45.60;100303.16;5150481;28;20046;-80
2022/08/17 05:07:19;;;;;;;0.52;0.52;;;;;;;23.29;45.82;100303.97;5151033;28;20042;-80
2022/08/17 05:09:50;;;;;;;1.10;0.80;;;;;;;23.29;45.67;100310.19;5139026;28;20576;-80
2022/08/17 05:12:20;;;;;;;5.68;1.90;;;;;;;23.29;45.72;100312.00;5117321;28;20406;-80
2022/08/17 05:14:51;;;;;;;3.05;1.50;;;;;;;23.29;46.10;100325.41;5112075;28;20046;-80
2022/08/17 05:17:21;;;;;;;0.90;0.68;;;;;;;23.30;49.04;100353.88;5159953;28;20030;-80
2022/08/17 05:19:52;;;;;;;3.80;2.00;;;;;;;23.01;51.39;100375.94;5140794;28;20046;-80
2022/08/17 05:22:22;;;;;;;1.20;1.02;;;;;;;23.03;51.23;100369.47;5142942;28;20030;-79
2022/08/17 05:24:53;;;;;;;0.77;0.77;;;;;;;23.08;48.93;100353.03;5116954;28;20030;-80
2022/08/17 05:27:24;;;;;;;2.60;1.65;;;;;;;23.02;51.14;100377.59;5143054;28;20446;-79
2022/08/17 05:29:57;;;;;;;1.80;1.17;;;;;;;23.06;48.89;100346.94;5125056;28;20042;-80
2022/08/17 05:32:27;;;;;;;1.13;1.02;;;;;;;23.08;48.48;100345.81;5149888;28;20479;-80
2022/08/17 05:34:59;;;;;;;1.35;1.25;;;;;;;23.09;47.67;100346.69;5141766;28;20507;-80
2022/08/17 05:37:32;;;;;;;7.57;1.15;;;;;;;23.12;47.69;100351.75;5126905;28;20041;-81
2022/08/17 05:40:06;;;;;;;0.73;0.65;;;;;;;23.12;48.48;100351.75;5113742;28;20042;-81
2022/08/17 05:42:37;;;;;;;0.60;0.60;;;;;;;23.15;47.98;100353.31;5122992;28;20037;-81
2022/08/17 05:45:09;;;;;;;0.75;0.75;;;;;;;23.19;48.25;100358.31;5148205;28;20039;-80
2022/08/17 05:47:42;;;;;;;0.60;0.60;;;;;;;23.19;47.61;100365.50;5132044;28;20061;-80
2022/08/17 05:50:25;;;;;;;0.40;0.40;;;;;;;23.22;48.38;100357.22;5130745;28;20125;-80
2022/08/17 05:53:09;;;;;;;;;;;;;;;23.24;48.75;100356.09;5149333;28;20038;-81
2022/08/17 05:56:02;;;;;;;;;;;;;;;23.21;49.05;100353.69;5144918;28;19928;-79
2022/08/17 05:58:57;;;;;;;1.33;1.10;;;;;;;23.31;48.56;100355.56;5148969;28;19906;-80
2022/08/17 06:01:49;;;;;;;0.80;0.80;;;;;;;23.29;48.79;100353.03;5131894;28;20073;-80
2022/08/17 06:04:22;;;;;;;0.68;0.68;;;;;;;23.32;48.77;100358.09;5139487;28;20346;-79
2022/08/17 06:07:30;;;;;;;4.65;2.63;;;;;;;23.33;48.48;100358.97;5167994;28;20038;-78
2022/08/17 06:10:29;;;;;;;8.30;1.10;;;;;;;23.35;48.71;100356.97;5120050;28;20074;-81
2022/08/17 06:13:38;;;;;;;0.73;0.73;;;;;;;23.40;47.78;100358.28;5145908;28;20093;-80
2022/08/17 06:16:15;;;;;;;2.35;1.13;;;;;;;23.44;48.02;100360.69;5156305;28;20050;-79
2022/08/17 06:18:58;;;;;;;1.20;1.02;;;;;;;23.45;47.75;100367.75;5141279;28;20122;-79
2022/08/17 06:21:34;;;;;;;1.10;1.08;;;;;;;23.48;48.08;100360.28;5158309;28;20204;-80
2022/08/17 06:24:10;;;;;;;0.68;0.68;;;;;;;23.51;49.17;100357.31;5142313;28;20029;-80
2022/08/17 06:26:44;;;;;;;4.13;1.23;;;;;;;23.53;48.78;100360.72;5132239;28;20599;-79
2022/08/17 06:29:40;;;;;;;1.02;1.00;;;;;;;23.53;49.38;100368.75;5123101;28;20050;-80
2022/08/17 06:32:12;;;;;;;1.40;1.10;;;;;;;23.53;50.70;100368.75;5151945;28;20070;-79
2022/08/17 06:34:45;;;;;;;1.88;1.15;;;;;;;23.53;50.66;100373.28;5130684;28;20041;-79
2022/08/17 06:37:24;;;;;;;;;;;;;;;23.57;48.76;100380.91;5115632;28;20145;-80
2022/08/17 06:40:32;;;;;;;1.13;0.90;;;;;;;23.60;50.19;100381.59;5128486;28;19925;-79
2022/08/17 06:43:15;;;;;;;0.80;0.80;;;;;;;23.60;51.03;100392.31;5130561;28;20359;-79
2022/08/17 06:45:51;;;;;;;1.00;1.00;;;;;;;23.52;51.62;100391.16;5142350;28;20038;-80
2022/08/17 06:48:49;;;;;;;0.35;0.35;;;;;;;23.62;49.89;100398.38;5130225;28;20133;-79
2022/08/17 06:51:33;;;;;;;6.45;1.02;;;;;;;23.61;50.96;100391.34;5136700;28;20070;-80
2022/08/17 06:54:14;;;;;;;1.15;0.82;;;;;;;23.64;49.99;100385.72;5175408;28;20030;-79
2022/08/17 06:57:21;;;;;;;3.40;1.75;;;;;;;23.66;49.67;100387.28;5136177;28;20098;-80
2022/08/17 07:00:01;;;;;;;0.60;0.60;;;;;;;23.67;50.50;100393.50;5126032;28;20038;-80
2022/08/17 07:02:51;;;;;;;0.57;0.47;;;;;;;23.71;51.03;100397.59;5141476;28;20434;-80
2022/08/17 07:05:29;;;;;;;0.35;0.35;;;;;;;23.71;50.27;100401.13;5123929;28;20123;-80
2022/08/17 07:08:02;;;;;;;0.82;0.82;;;;;;;23.71;50.37;100394.91;5128264;28;20030;-80
2022/08/17 07:10:38;;;;;;;1.23;1.13;;;;;;;23.78;49.99;100398.72;5124346;28;20043;-80
2022/08/17 07:13:32;;;;;;;1.35;0.95;;;;;;;23.84;49.44;100389.31;5110741;28;20173;-80
2022/08/17 07:16:14;;;;;;;0.75;0.75;;;;;;;23.86;49.31;100398.91;5122978;28;20443;-80
2022/08/17 07:18:48;;;;;;;1.35;0.90;;;;;;;23.94;49.66;100384.88;5123263;28;20094;-80
2022/08/17 07:21:42;;;;;;;0.73;0.73;;;;;;;23.97;50.45;100381.06;5133463;28;20042;-80
2022/08/17 07:24:38;;;;;;;0.82;0.82;;;;;;;23.95;50.48;100380.34;5112157;28;21333;-80
2022/08/17 07:27:20;;;;;;;0.68;0.68;;;;;;;23.99;49.25;100397.88;5140040;28;20035;-79
2022/08/17 07:30:08;;;;;;;2.97;0.80;;;;;;;24.01;49.51;100403.91;5141157;28;20415;-80
2022/08/17 07:32:49;;;;;;;1.10;0.50;;;;;;;23.98;50.99;100402.34;5129629;28;20113;-81
2022/08/17 07:35:29;;;;;;;0.75;0.73;;;;;;;24.01;49.50;100412.81;5118954;28;20042;-82
2022/08/17 07:38:22;;;;;;;1.80;1.48;;;;;;;24.02;49.96;100416.31;5134172;28;20030;-81
2022/08/17 07:40:56;;;;;;;4.07;1.05;;;;;;;24.06;49.59;100420.44;5110218;28;20038;-80
2022/08/17 07:43:38;;;;;;;1.30;1.20;;;;;;;24.10;50.52;100427.22;5150114;28;20117;-80
2022/08/17 07:49:14;;;;;;;0.50;0.47;;;;;;;24.14;49.59;100433.13;5144458;28;20737;-80
2022/08/17 07:51:49;;;;;;;0.77;0.75;;;;;;;24.09;50.32;100438.91;5128742;28;20121;-80
2022/08/17 07:54:30;;;;;;;3.75;2.53;;;;;;;24.13;49.85;100443.03;5149192;28;20051;-81
2022/08/17 07:57:07;;;;;;;9.50;2.25;;;;;;;24.13;50.26;100439.50;5138248;28;20034;-81
2022/08/17 08:00:05;;;;;;;1.25;1.00;;;;;;;24.04;50.60;100439.34;5126086;28;20050;-80
2022/08/17 08:02:44;;;;;;;;;;;;;;;24.11;50.47;100438.78;5138152;28;20077;-80
2022/08/17 08:05:29;;;;;;;1.20;1.10;;;;;;;23.95;51.17;100441.97;5128664;28;19918;-81
2022/08/17 08:08:20;;;;;;;1.48;1.08;;;;;;;24.03;51.35;100444.81;5137045;28;20030;-80
2022/08/17 08:11:14;;;;;;;0.85;0.85;;;;;;;24.03;51.42;100447.50;5111801;28;20069;-80
2022/08/17 08:13:44;;;;;;;3.45;2.05;;;;;;;24.03;51.41;100443.00;5131715;28;20042;-81
2022/08/17 08:16:24;;;;;;;0.73;0.70;;;;;;;24.08;50.46;100441.72;5110691;28;20055;-82
2022/08/17 08:18:59;;;;;;;0.75;0.73;;;;;;;24.11;50.23;100447.66;5125896;28;20530;-80
2022/08/17 08:21:35;;;;;;;0.52;0.52;;;;;;;24.14;49.78;100447.41;5129527;28;20035;-81
2022/08/17 08:24:12;;;;;;;3.42;1.52;;;;;;;24.17;49.81;100448.97;5145337;28;20118;-81
2022/08/17 08:27:12;;;;;;;1.00;0.85;;;;;;;24.20;49.62;100446.00;5128933;28;20035;-79
2022/08/17 08:29:56;;;;;;;2.08;1.35;;;;;;;24.24;50.00;100447.44;5146706;28;20039;-82
2022/08/17 08:32:47;;;;;;;1.13;1.13;;;;;;;24.27;49.64;100455.19;5141222;28;20030;-81
2022/08/17 08:35:32;;;;;;;3.35;2.55;;;;;;;24.07;51.87;100467.69;5142544;28;20039;-79
2022/08/17 08:38:22;;;;;;;0.85;0.85;;;;;;;23.98;52.55;100477.38;5157347;28;20039;-80
2022/08/17 08:41:18;;;;;;;2.28;0.85;;;;;;;23.94;52.66;100485.81;5114269;28;20050;-79
2022/08/17 08:44:04;;;;;;;0.93;0.90;;;;;;;23.96;51.86;100476.69;5128130;28;20169;-81
2022/08/17 08:46:42;;;;;;;1.50;0.93;;;;;;;24.04;51.97;100476.00;5126681;28;20034;-81
2022/08/17 08:49:38;;;;;;;3.30;1.15;;;;;;;24.04;50.79;100476.88;5126403;28;20061;-80
2022/08/17 08:52:29;;;;;;;1.95;1.85;;;;;;;24.05;51.22;100475.03;5140408;28;20678;-80
2022/08/17 08:55:17;;;;;;;1.60;1.50;;;;;;;24.07;51.05;100475.75;5133512;28;20496;-80
2022/08/17 08:58:06;;;;;;;;;;;;;;;;;;;;;
2022/08/17 09:00:42;;;;;;;4.55;1.77;;;;;;;24.10;50.94;100471.94;5153236;28;20031;-79
2022/08/17 09:03:36;;;;;;;1.33;1.23;;;;;;;24.04;52.37;100470.63;5169200;28;20034;-80
2022/08/17 09:06:43;;;;;;;1.70;1.60;;;;;;;24.05;52.82;100473.19;5112934;28;20050;-81
2022/08/17 09:09:19;;;;;;;3.50;2.13;;;;;;;24.01;52.91;100468.22;5105300;28;20142;-80
2022/08/17 09:12:07;;;;;;;1.08;1.08;;;;;;;24.05;52.50;100473.19;5129900;28;20027;-82
2022/08/17 09:14:44;;;;;;;2.88;1.60;;;;;;;23.87;53.56;100478.28;5129486;28;20077;-81
2022/08/17 09:17:28;;;;;;;2.55;1.50;;;;;;;23.78;53.77;100481.78;5132480;28;20412;-82
2022/08/17 09:20:24;;;;;;;0.73;0.73;;;;;;;23.85;53.79;100485.59;5146152;28;20041;-83
2022/08/17 09:23:05;;;;;;;0.65;0.65;;;;;;;23.83;53.72;100495.63;5128965;28;20050;-82
2022/08/17 09:26:10;;;;;;;1.37;1.27;;;;;;;23.71;54.55;100483.28;5153246;28;20049;-79
2022/08/17 09:28:43;;;;;;;;;;;;;;;23.73;54.28;100484.00;5124766;28;20285;-81
2022/08/17 09:31:20;;;;;;;0.80;0.80;;;;;;;23.74;54.36;100486.56;5125155;28;19941;-80
2022/08/17 09:33:54;;;;;;;1.17;1.08;;;;;;;23.75;54.65;100498.13;5146911;28;20129;-80
2022/08/17 09:36:33;;;;;;;1.30;1.20;;;;;;;23.79;53.83;100496.88;5131897;28;20178;-80
2022/08/17 09:39:15;;;;;;;1.40;1.30;;;;;;;23.68;54.88;100494.25;5131145;28;20398;-80
2022/08/17 09:41:54;;;;;;;1.90;1.65;;;;;;;23.65;54.87;100497.22;5144525;28;20029;-81
2022/08/17 09:44:43;;;;;;;1.48;1.38;;;;;;;23.83;53.16;100489.41;5132008;28;20046;-80
2022/08/17 09:47:32;;;;;;;1.75;1.55;;;;;;;23.74;54.82;100491.06;5118366;28;20031;-81
2022/08/17 09:50:10;;;;;;;3.50;1.65;;;;;;;23.68;55.04;100494.25;5127858;28;20079;-80
2022/08/17 09:52:42;;;;;;;1.38;1.27;;;;;;;23.65;54.74;100495.38;5128347;28;20026;-80
2022/08/17 09:55:15;;;;;;;1.05;1.05;;;;;;;23.56;55.38;100491.69;5130947;28;20046;-80
2022/08/17 09:57:59;;;;;;;1.10;0.95;;;;;;;23.72;54.73;100498.38;5128031;28;20026;-80
2022/08/17 10:00:35;;;;;;;1.02;0.98;;;;;;;23.63;55.31;100499.16;5143082;28;20183;-79
2022/08/17 10:03:24;;;;;;;0.85;0.82;;;;;;;23.55;56.10;100502.53;5109696;28;20026;-78
2022/08/17 10:06:08;;;;;;;1.70;1.30;;;;;;;23.51;56.26;100504.59;5109608;28;20058;-80
2022/08/17 10:09:07;;;;;;;0.75;0.70;;;;;;;23.65;57.43;100507.94;5125347;28;20260;-80
2022/08/17 10:15:08;;;;;;;0.95;0.95;;;;;;;23.55;58.16;100511.41;5143384;28;20039;-80
2022/08/17 10:17:39;;;;;;;8.00;1.95;;;;;;;23.51;58.46;100517.97;5128056;28;20415;-79
2022/08/17 10:20:17;;;;;;;1.27;0.95;;;;;;;23.44;58.72;100527.50;5127511;28;20034;-79
2022/08/17 10:26:12;;;;;;;3.42;2.17;;;;;;;23.32;59.80;100518.69;5153901;28;20063;-79
2022/08/17 10:29:00;;;;;;;7.75;3.83;;;;;;;23.23;59.11;100516.78;5110661;28;20035;-79
2022/08/17 10:31:34;;;;;;;1.15;1.05;;;;;;;23.21;59.88;100521.44;5133606;28;20039;-79
2022/08/17 10:34:39;;;;;;;0.70;0.70;;;;;;;23.19;60.02;100515.38;5134253;28;20395;-81
2022/08/17 10:37:27;;;;;;;1.42;1.20;;;;;;;23.15;59.40;100505.84;5172408;28;20026;-80
2022/08/17 10:40:38;;;;;;;0.80;0.70;;;;;;;23.23;57.63;100493.56;5169553;28;20042;-79
2022/08/17 10:43:50;;;;;;;3.83;1.77;;;;;;;23.31;57.04;100486.72;5168923;28;20042;-79
2022/08/17 10:47:25;;;;;;;1.27;1.17;;;;;;;23.31;56.63;100471.50;5142951;28;20330;-81
2022/08/17 10:50:49;;;;;;;0.80;0.80;;;;;;;23.36;56.16;100473.78;5126677;28;20034;-79
2022/08/17 10:53:34;;;;;;;0.82;0.82;;;;;;;23.36;56.40;100471.97;5108378;28;20046;-80
2022/08/17 10:56:16;;;;;;;2.20;1.95;;;;;;;23.39;57.40;100465.50;5167681;28;20035;-79
2022/08/17 10:59:04;;;;;;;;;;;;;;;;;;;;;
2022/08/17 11:02:30;;;;;;;1.40;1.15;;;;;;;23.48;56.30;100459.34;5163481;28;20035;-81
2022/08/17 11:05:40;;;;;;;1.88;1.35;;;;;;;23.46;56.86;100458.63;5122781;28;20049;-80
2022/08/17 11:08:41;;;;;;;2.42;2.17;;;;;;;23.50;57.24;100456.53;5125866;28;20031;-80
2022/08/17 11:11:34;;;;;;;0.98;0.88;;;;;;;23.55;57.06;100465.88;5126210;28;20041;-80
2022/08/17 11:14:15;;;;;;;;;;;;;;;23.61;57.08;100474.34;5146452;28;20277;-80
2022/08/17 11:17:20;;;;;;;3.75;1.95;;;;;;;23.54;58.64;100474.88;5135425;28;20008;-80
2022/08/17 11:20:08;;;;;;;4.28;1.52;;;;;;;23.60;58.30;100483.34;5142061;28;20498;-80
2022/08/17 11:22:58;;;;;;;2.60;2.38;;;;;;;23.34;60.80;100489.16;5127319;28;20061;-80
2022/08/17 11:25:32;;;;;;;1.58;1.48;;;;;;;23.44;59.15;100499.91;5109775;28;20112;-80
2022/08/17 11:28:22;;;;;;;1.42;1.27;;;;;;;23.27;61.18;100497.66;5124923;28;20038;-80
2022/08/17 11:31:37;;;;;;;4.07;2.88;;;;;;;23.31;59.73;100505.44;5120483;28;20079;-81
2022/08/17 11:34:25;;;;;;;2.08;1.50;;;;;;;23.22;61.72;100496.38;5117447;28;20038;-83
2022/08/17 11:37:18;;;;;;;1.38;1.27;;;;;;;23.35;60.64;100506.88;5125090;28;20042;-80
2022/08/17 11:40:10;;;;;;;1.42;1.33;;;;;;;23.42;60.11;100508.06;5156321;28;20027;-81
2022/08/17 11:42:49;;;;;;;0.93;0.93;;;;;;;23.38;58.94;100512.84;5159714;28;20113;-80
2022/08/17 11:45:46;;;;;;;6.80;1.60;;;;;;;23.36;60.37;100509.44;5148405;28;20055;-82
2022/08/17 11:51:52;;;;;;;1.38;0.85;;;;;;;23.32;61.07;100499.97;5158162;28;20097;-82
2022/08/17 11:54:46;;;;;;;1.23;1.13;;;;;;;23.29;60.04;100510.06;5147437;28;20050;-81
2022/08/17 11:57:26;;;;;;;4.78;1.63;;;;;;;23.20;62.13;100512.56;5140695;28;20026;-82
2022/08/17 12:00:31;;;;;;;2.30;1.63;;;;;;;23.03;63.44;100519.28;5144189;28;20668;-81
2022/08/17 12:03:31;;;;;;;2.05;1.85;;;;;;;23.26;60.71;100527.25;5155088;28;20038;-82
2022/08/17 12:06:23;;;;;;;2.40;2.20;;;;;;;23.18;61.98;100527.88;5106669;28;20054;-80
2022/08/17 12:09:17;;;;;;;1.70;1.55;;;;;;;23.11;63.56;100526.66;5142579;28;20030;-80
2022/08/17 12:12:11;;;;;;;2.28;2.08;;;;;;;23.19;62.40;100534.94;5088030;28;20038;-81
2022/08/17 12:14:50;;;;;;;1.88;1.77;;;;;;;23.29;61.47;100532.34;5125688;28;20178;-82
2022/08/17 12:17:23;;;;;;;2.08;1.80;;;;;;;23.31;62.34;100532.22;5109700;28;20081;-83
2022/08/17 12:19:54;;;;;;;5.30;2.30;;;;;;;23.35;60.48;100534.50;5125688;28;20045;-83
2022/08/17 12:22:32;;;;;;;2.15;1.50;;;;;;;23.46;60.35;100522.06;5127577;28;21151;-81
2022/08/17 12:25:22;;;;;;;1.70;1.50;;;;;;;23.49;59.43;100524.44;5132688;28;20062;-83
2022/08/17 12:27:53;;;;;;;2.33;2.13;;;;;;;23.72;60.05;100526.00;5160627;28;20038;-81
2022/08/17 12:30:27;;;;;;;1.65;1.55;;;;;;;23.66;61.48;100531.06;5142645;28;20069;-80
2022/08/17 12:32:57;;;;;;;2.05;1.90;;;;;;;23.75;61.08;100530.28;5146721;28;20052;-81
2022/08/17 12:35:34;;;;;;;4.07;2.50;;;;;;;23.79;60.91;100531.69;5135970;28;20034;-80
2022/08/17 12:38:09;;;;;;;1.65;1.55;;;;;;;23.92;59.94;100536.00;5119094;28;20495;-80
2022/08/17 12:40:39;;;;;;;1.85;1.38;;;;;;;24.03;59.12;100538.59;5118124;28;20173;-81
2022/08/17 12:43:25;;;;;;;4.85;2.45;;;;;;;24.05;60.41;100533.97;5132226;28;20113;-82
2022/08/17 12:46:01;;;;;;;3.33;1.65;;;;;;;24.07;61.06;100537.38;5111111;28;20047;-81
2022/08/17 12:48:35;;;;;;;0.95;0.95;;;;;;;24.17;59.83;100540.09;5125891;28;20030;-82
2022/08/17 12:51:11;;;;;;;1.25;1.15;;;;;;;24.24;60.02;100535.03;5125955;28;20034;-83
2022/08/17 12:53:52;;;;;;;1.77;1.13;;;;;;;24.32;59.79;100521.81;5129904;28;20030;-82